Terminal Aerodrome Forecast
Issued by NWS North Platte, NE

Home | Current Version | Previous Version | Text Only | Print | Product List | Glossary On
Versions: 1 2 3 4 5 6 7 8 9 10 11 12 13 14 15 16 17 18 19 20
819
FTUS43 KLBF 230957 AAB
TAFVTN
TAF AMD
KVTN 230957Z 2310/2406 04017G25KT 2SM -SN BR OVC004
     FM231200 04015G23KT 1SM -SN OVC004
     FM231600 04017G24KT 1/2SM SN BLSN VV004=

USA.gov is the U.S. government's official web portal to all federal, state and local government web resources and services.